Harman, West Virginia
Current Conditions -  °F | °C
As of 3:51 AM on Monday 24 Nov 2014 (Local Time) from KEKN Reporting Station
Scattered Clouds Scattered Clouds  
Wind Chill: 60°   Ceiling: Unl
Heat Index: 60°   Visibility: 10mi
Dew Point: 50°   Wind: 8mph
Humidity: 69%   Direction: 210°SSW
Pressure: 29.57"   Gusts: NA
Location:  38.92°N, 79.53°W
Report Text: KEKN 240851Z AUTO 21007KT 10SM SCT047 SCT055 16/10 A2957 RMK AO2 SLP010 T01560100 53002 TSNO
Loading
Personal Weather Stations






























Interactive Weather Map New forecast layout! Learn more

10-Day Weather Forecast

Advertisements
Track Severe Weather on mobile